METAR Data
IDs: Format: Raw Decoded Include TAF

Data at: 0510 UTC 18 Oct 2018

METAR for:KZZV (Zanesville Muni, OH, US)
Text:KZZV 180453Z AUTO 34007KT 10SM CLR 04/M02 A3041 RMK AO2 SLP300 T00441022 401610033
Temperature: 4.4°C ( 40°F)
Dewpoint: -2.2°C ( 28°F) [RH = 62%]
Pressure (altimeter):30.41 inches Hg (1029.9 mb) [Sea level pressure: 1030.0 mb]
Winds:from the NNW (340 degrees) at 8 MPH (7 knots; 3.6 m/s)
Visibility:10 or more sm (16+ km)
Ceiling:at least 12,000 feet AGL
Clouds:sky clear below 12,000 feet AGL
QC Flag:automated observation with no human augmentation